Time;durP1;ratioP1;P1;durP2;ratioP2;P2;SDS_P1;SDS_P2;PMS_P1;PMS_P2;Temp;Humidity;BMP_temperature;BMP_pressure;BME280_temperature;BME280_humidity;BME280_pressure;Samples;Min_cycle;Max_cycle;Signal;HPM_P1;HPM_P2
2021/05/20 00:00:23;;;;;;;27.48;11.48;;;;;;;;;;5009641;28;20083;-61
2021/05/20 00:02:48;;;;;;;35.17;13.05;;;;;;;;;;5023731;28;20025;-58
2021/05/20 00:05:17;;;;;;;34.90;13.90;;;;;;;;;;4993848;28;20040;-59
2021/05/20 00:07:43;;;;;;;38.03;13.88;;;;;;;;;;5025423;28;20063;-58
2021/05/20 00:10:09;;;;;;;36.50;13.07;;;;;;;;;;5026598;28;20074;-58
2021/05/20 00:12:37;;;;;;;40.13;15.85;;;;;;;;;;5008544;28;20103;-58
2021/05/20 00:15:06;;;;;;;40.95;15.30;;;;;;;;;;5027784;28;20037;-61
2021/05/20 00:17:32;;;;;;;39.75;15.15;;;;;;;;;;5006936;28;20040;-58
2021/05/20 00:20:00;;;;;;;35.03;13.02;;;;;;;;;;5009415;28;20106;-58
2021/05/20 00:22:26;;;;;;;29.58;13.35;;;;;;;;;;5012181;28;20201;-58
2021/05/20 00:24:51;;;;;;;38.33;13.77;;;;;;;;;;5011341;28;20480;-59
2021/05/20 00:27:17;;;;;;;41.05;13.35;;;;;;;;;;5024691;28;20492;-58
2021/05/20 00:29:43;;;;;;;38.42;13.32;;;;;;;;;;5010648;28;20528;-59
2021/05/20 00:32:09;;;;;;;35.10;12.25;;;;;;;;;;5027376;28;20808;-57
2021/05/20 00:34:34;;;;;;;29.58;11.30;;;;;;;;;;5027445;28;20037;-58
2021/05/20 00:37:00;;;;;;;26.55;12.63;;;;;;;;;;5024933;28;20075;-58
2021/05/20 00:39:28;;;;;;;40.33;13.30;;;;;;;;;;5015818;28;20507;-59
2021/05/20 00:41:54;;;;;;;34.22;12.10;;;;;;;;;;5011134;28;20068;-58
2021/05/20 00:44:19;;;;;;;30.15;12.43;;;;;;;;;;4994218;28;20159;-58
2021/05/20 00:46:48;;;;;;;33.20;13.02;;;;;;;;;;5007279;28;20028;-59
2021/05/20 00:49:13;;;;;;;30.00;11.88;;;;;;;;;;4995551;28;20025;-58
2021/05/20 00:51:41;;;;;;;28.40;11.73;;;;;;;;;;5007380;28;20033;-60
2021/05/20 00:54:07;;;;;;;37.88;13.82;;;;;;;;;;5011650;28;20720;-58
2021/05/20 00:56:33;;;;;;;34.40;12.18;;;;;;;;;;5030094;28;20477;-58
2021/05/20 00:59:01;;;;;;;27.70;12.68;;;;;;;;;;5031560;28;20119;-59
2021/05/20 01:01:27;;;;;;;37.15;13.57;;;;;;;;;;4981961;28;20033;-58
2021/05/20 01:03:52;;;;;;;36.58;13.07;;;;;;;;;;4997256;28;20052;-59
2021/05/20 01:06:21;;;;;;;32.30;10.63;;;;;;;;;;5014628;28;22004;-58
2021/05/20 01:08:49;;;;;;;32.22;13.98;;;;;;;;;;5029988;28;20223;-59
2021/05/20 01:11:14;;;;;;;44.25;13.10;;;;;;;;;;5014418;28;20830;-59
2021/05/20 01:13:40;;;;;;;29.30;13.82;;;;;;;;;;5030548;28;20056;-58
2021/05/20 01:16:10;;;;;;;38.50;14.10;;;;;;;;;;5012518;28;20033;-59
2021/05/20 01:18:36;;;;;;;54.88;13.57;;;;;;;;;;4995534;28;20453;-59
2021/05/20 01:21:02;;;;;;;27.08;12.40;;;;;;;;;;5032890;28;20028;-58
2021/05/20 01:23:28;;;;;;;37.40;12.15;;;;;;;;;;4996868;28;20083;-58
2021/05/20 01:25:54;;;;;;;41.55;13.40;;;;;;;;;;5011028;28;20079;-59
2021/05/20 01:28:21;;;;;;;35.38;12.45;;;;;;;;;;5031216;28;20043;-59
2021/05/20 01:30:50;;;;;;;42.85;14.27;;;;;;;;;;5031754;28;20040;-58
2021/05/20 01:33:15;;;;;;;42.42;13.57;;;;;;;;;;5010588;28;20037;-59
2021/05/20 01:35:42;;;;;;;34.40;13.35;;;;;;;;;;5032517;28;20155;-58
2021/05/20 01:40:54;;;;;;;27.08;12.13;;;;;;;;;;5031427;28;20107;-58
2021/05/20 01:43:23;;;;;;;34.97;13.20;;;;;;;;;;5031859;28;20029;-58
2021/05/20 01:45:57;;;;;;;29.40;10.73;;;;;;;;;;5027627;28;20032;-58
2021/05/20 01:48:28;;;;;;;40.92;12.82;;;;;;;;;;5029074;28;20547;-58
2021/05/20 01:50:59;;;;;;;34.33;13.25;;;;;;;;;;4999087;28;22058;-60
2021/05/20 01:53:24;;;;;;;38.05;13.20;;;;;;;;;;5013194;28;20037;-58
2021/05/20 01:55:50;;;;;;;43.15;14.13;;;;;;;;;;4997496;28;20040;-58
2021/05/20 01:58:15;;;;;;;54.20;15.15;;;;;;;;;;4994558;28;20032;-58
2021/05/20 02:00:41;;;;;;;45.55;17.00;;;;;;;;;;5011241;28;20032;-59
2021/05/20 02:03:09;;;;;;;51.80;15.43;;;;;;;;;;5029366;28;20425;-57
2021/05/20 02:05:34;;;;;;;56.97;17.10;;;;;;;;;;5012125;28;20029;-58
2021/05/20 02:08:03;;;;;;;52.85;16.80;;;;;;;;;;5013049;28;20037;-57
2021/05/20 02:10:28;;;;;;;54.45;16.48;;;;;;;;;;5010479;28;20472;-58
2021/05/20 02:12:57;;;;;;;52.22;17.35;;;;;;;;;;5029839;28;20976;-58
2021/05/20 02:15:22;;;;;;;61.58;18.10;;;;;;;;;;5012665;28;20033;-58
2021/05/20 02:17:48;;;;;;;51.05;16.40;;;;;;;;;;5029566;28;20083;-58
2021/05/20 02:20:15;;;;;;;51.65;16.52;;;;;;;;;;4997378;28;20029;-58
2021/05/20 02:22:43;;;;;;;47.78;14.98;;;;;;;;;;5028210;28;20036;-59
2021/05/20 02:25:09;;;;;;;54.33;17.00;;;;;;;;;;5006852;28;20060;-58
2021/05/20 02:27:35;;;;;;;58.33;16.13;;;;;;;;;;5028610;28;20080;-58
2021/05/20 02:30:00;;;;;;;54.28;15.77;;;;;;;;;;4995707;28;20580;-58
2021/05/20 02:32:26;;;;;;;68.38;17.65;;;;;;;;;;5010834;28;20025;-58
2021/05/20 02:34:52;;;;;;;44.50;16.35;;;;;;;;;;5013796;28;20033;-59
2021/05/20 02:37:17;;;;;;;82.22;17.40;;;;;;;;;;5013934;28;20032;-58
2021/05/20 02:39:43;;;;;;;44.35;17.45;;;;;;;;;;5029139;28;20035;-59
2021/05/20 02:42:08;;;;;;;49.38;16.92;;;;;;;;;;4997356;28;20029;-58
2021/05/20 02:44:36;;;;;;;51.78;17.30;;;;;;;;;;5011622;28;20037;-58
2021/05/20 02:47:04;;;;;;;52.95;15.25;;;;;;;;;;5029923;28;20021;-58
2021/05/20 02:49:29;;;;;;;53.63;16.27;;;;;;;;;;4996806;28;20054;-59
2021/05/20 02:51:57;;;;;;;67.03;18.60;;;;;;;;;;5011878;28;20033;-58
2021/05/20 02:54:25;;;;;;;79.95;18.02;;;;;;;;;;4980067;28;20482;-59
2021/05/20 02:56:50;;;;;;;63.35;18.75;;;;;;;;;;4994545;28;20024;-57
2021/05/20 02:59:16;;;;;;;69.50;18.50;;;;;;;;;;4991172;28;20625;-58
2021/05/20 03:01:44;;;;;;;46.63;16.65;;;;;;;;;;5027920;28;20429;-58
2021/05/20 03:04:09;;;;;;;61.63;17.42;;;;;;;;;;5010687;28;20021;-58
2021/05/20 03:06:35;;;;;;;68.03;18.17;;;;;;;;;;5026473;28;20039;-58
2021/05/20 03:09:00;;;;;;;59.33;17.92;;;;;;;;;;5030281;28;20937;-59
2021/05/20 03:11:28;;;;;;;48.53;16.70;;;;;;;;;;5027394;28;20025;-58
2021/05/20 03:13:56;;;;;;;55.25;19.80;;;;;;;;;;5029902;28;20160;-58
2021/05/20 03:16:22;;;;;;;46.78;16.48;;;;;;;;;;5012882;28;20040;-57
2021/05/20 03:18:48;;;;;;;50.67;16.90;;;;;;;;;;5029236;28;20048;-58
2021/05/20 03:21:18;;;;;;;56.58;17.05;;;;;;;;;;5031008;28;20029;-59
2021/05/20 03:23:44;;;;;;;49.97;14.93;;;;;;;;;;5030629;28;20028;-61
2021/05/20 03:26:09;;;;;;;42.58;14.13;;;;;;;;;;5012070;28;20056;-59
2021/05/20 03:28:37;;;;;;;46.10;16.17;;;;;;;;;;4994928;28;20622;-58
2021/05/20 03:31:03;;;;;;;60.90;16.45;;;;;;;;;;5013250;28;20033;-58
2021/05/20 03:33:32;;;;;;;50.92;15.75;;;;;;;;;;4995245;28;20033;-60
2021/05/20 03:36:00;;;;;;;53.88;16.70;;;;;;;;;;5031114;28;20025;-57
2021/05/20 03:38:26;;;;;;;63.20;16.33;;;;;;;;;;5029889;28;20082;-57
2021/05/20 03:40:54;;;;;;;42.13;14.80;;;;;;;;;;5029974;28;20573;-58
2021/05/20 03:43:19;;;;;;;38.30;13.55;;;;;;;;;;5030047;28;20029;-58
2021/05/20 03:45:47;;;;;;;41.58;14.48;;;;;;;;;;5012591;28;20163;-59
2021/05/20 03:48:13;;;;;;;87.32;19.15;;;;;;;;;;5010196;28;20170;-58
2021/05/20 03:50:40;;;;;;;38.22;13.38;;;;;;;;;;5029390;28;20041;-57
2021/05/20 03:53:05;;;;;;;48.28;14.73;;;;;;;;;;5026973;28;20032;-58
2021/05/20 03:55:31;;;;;;;46.70;16.15;;;;;;;;;;5029431;28;20037;-57
2021/05/20 03:57:56;;;;;;;47.13;15.57;;;;;;;;;;5010233;28;20063;-58
2021/05/20 04:00:24;;;;;;;44.78;14.60;;;;;;;;;;5026705;28;20159;-59
2021/05/20 04:02:52;;;;;;;37.60;15.00;;;;;;;;;;4994667;28;20033;-58
2021/05/20 04:05:17;;;;;;;44.50;15.27;;;;;;;;;;5009789;28;20110;-58
2021/05/20 04:07:43;;;;;;;36.95;14.60;;;;;;;;;;5010198;28;20491;-58
2021/05/20 04:10:09;;;;;;;43.80;16.35;;;;;;;;;;5011648;28;20990;-58
2021/05/20 04:12:35;;;;;;;41.85;15.82;;;;;;;;;;5027565;28;20041;-59
2021/05/20 04:15:03;;;;;;;41.55;14.90;;;;;;;;;;5029329;28;20029;-57
2021/05/20 04:17:28;;;;;;;40.88;14.50;;;;;;;;;;5026470;28;20128;-58
2021/05/20 04:19:53;;;;;;;46.28;15.63;;;;;;;;;;5010052;28;20485;-58
2021/05/20 04:22:19;;;;;;;51.08;16.90;;;;;;;;;;5028577;28;20036;-58
2021/05/20 04:24:44;;;;;;;42.80;16.55;;;;;;;;;;5011376;28;21055;-58
2021/05/20 04:27:13;;;;;;;46.80;17.75;;;;;;;;;;5009839;28;20036;-58
2021/05/20 04:29:38;;;;;;;40.53;15.50;;;;;;;;;;5030457;28;20156;-57
2021/05/20 04:32:04;;;;;;;40.03;17.48;;;;;;;;;;5008966;28;20032;-59
2021/05/20 04:34:32;;;;;;;39.75;15.82;;;;;;;;;;5028095;28;20024;-58
2021/05/20 04:36:58;;;;;;;46.75;16.67;;;;;;;;;;4993634;28;20029;-56
2021/05/20 04:39:27;;;;;;;40.33;15.98;;;;;;;;;;5028074;28;21326;-57
2021/05/20 04:41:53;;;;;;;37.88;14.75;;;;;;;;;;5027906;28;20074;-58
2021/05/20 04:44:19;;;;;;;38.78;14.32;;;;;;;;;;5028497;28;20033;-57
2021/05/20 04:46:45;;;;;;;29.85;14.93;;;;;;;;;;5026374;28;20031;-58
2021/05/20 04:49:14;;;;;;;26.63;12.60;;;;;;;;;;5008267;28;20060;-58
2021/05/20 04:51:40;;;;;;;25.85;13.38;;;;;;;;;;5006146;28;20033;-57
2021/05/20 04:54:06;;;;;;;19.33;12.02;;;;;;;;;;5009573;28;20606;-57
2021/05/20 04:56:31;;;;;;;19.65;12.18;;;;;;;;;;5026968;28;20032;-58
2021/05/20 04:58:57;;;;;;;21.40;10.35;;;;;;;;;;5010433;28;20068;-58
2021/05/20 05:01:25;;;;;;;18.92;10.82;;;;;;;;;;5009012;28;20033;-59
2021/05/20 05:03:57;;;;;;;19.95;10.07;;;;;;;;;;5026282;28;20051;-58
2021/05/20 05:06:27;;;;;;;17.50;10.23;;;;;;;;;;5027354;28;20048;-58
2021/05/20 05:08:52;;;;;;;18.95;10.63;;;;;;;;;;4989920;28;22039;-56
2021/05/20 05:11:18;;;;;;;14.98;9.55;;;;;;;;;;5015277;28;20064;-57
2021/05/20 05:13:44;;;;;;;15.48;10.50;;;;;;;;;;5025553;28;20123;-58
2021/05/20 05:16:14;;;;;;;12.18;8.63;;;;;;;;;;5028040;28;20036;-57
2021/05/20 05:18:40;;;;;;;18.83;8.43;;;;;;;;;;5024012;28;20037;-57
2021/05/20 05:21:07;;;;;;;16.20;9.30;;;;;;;;;;5015129;28;20121;-57
2021/05/20 05:23:33;;;;;;;13.95;8.73;;;;;;;;;;5010734;28;20506;-58
2021/05/20 05:25:59;;;;;;;11.30;8.18;;;;;;;;;;5010247;28;20890;-58
2021/05/20 05:28:25;;;;;;;11.30;7.85;;;;;;;;;;5024437;28;20029;-57
2021/05/20 05:30:51;;;;;;;16.77;8.52;;;;;;;;;;5008466;28;20060;-58
2021/05/20 05:33:16;;;;;;;10.48;7.90;;;;;;;;;;5007578;28;20033;-58
2021/05/20 05:35:42;;;;;;;11.77;7.78;;;;;;;;;;5010870;28;20040;-57
2021/05/20 05:38:08;;;;;;;9.25;6.93;;;;;;;;;;5025929;28;20097;-58
2021/05/20 05:40:34;;;;;;;7.45;5.85;;;;;;;;;;5010180;28;20024;-58
2021/05/20 05:43:00;;;;;;;8.95;6.60;;;;;;;;;;5009861;28;20060;-58
2021/05/20 05:45:25;;;;;;;9.20;5.95;;;;;;;;;;5027292;28;20043;-57
2021/05/20 05:47:51;;;;;;;12.70;5.85;;;;;;;;;;5030322;28;20036;-58
2021/05/20 05:50:21;;;;;;;8.80;6.22;;;;;;;;;;5011982;28;20028;-57
2021/05/20 05:52:47;;;;;;;9.80;5.75;;;;;;;;;;5013657;28;20414;-59
2021/05/20 05:55:12;;;;;;;6.95;5.03;;;;;;;;;;5013935;28;20029;-59
2021/05/20 05:57:38;;;;;;;7.43;5.50;;;;;;;;;;5012103;28;20512;-60
2021/05/20 06:00:10;;;;;;;9.65;5.90;;;;;;;;;;4998904;28;20041;-59
2021/05/20 06:02:36;;;;;;;6.63;5.20;;;;;;;;;;5007606;28;20505;-59
2021/05/20 06:05:03;;;;;;;11.98;4.65;;;;;;;;;;5007945;28;20036;-59
2021/05/20 06:07:34;;;;;;;7.15;5.30;;;;;;;;;;4996536;28;20041;-59
2021/05/20 06:10:00;;;;;;;5.35;4.32;;;;;;;;;;5012384;28;20135;-60
2021/05/20 06:12:30;;;;;;;6.95;4.82;;;;;;;;;;4992463;28;20534;-58
2021/05/20 06:14:57;;;;;;;5.82;4.93;;;;;;;;;;5028295;28;20643;-58
2021/05/20 06:17:23;;;;;;;7.82;4.35;;;;;;;;;;5029535;28;20033;-60
2021/05/20 06:19:49;;;;;;;6.40;4.63;;;;;;;;;;5028705;28;20044;-59
2021/05/20 06:22:14;;;;;;;7.72;4.20;;;;;;;;;;5012179;28;20066;-59
2021/05/20 06:24:41;;;;;;;4.63;3.85;;;;;;;;;;5031237;28;20108;-58
2021/05/20 06:27:07;;;;;;;7.78;4.15;;;;;;;;;;5010552;28;20029;-59
2021/05/20 06:29:32;;;;;;;5.18;3.90;;;;;;;;;;5012692;28;20029;-58
2021/05/20 06:31:58;;;;;;;5.10;4.18;;;;;;;;;;4994662;28;20519;-59
2021/05/20 06:34:24;;;;;;;5.78;3.90;;;;;;;;;;5012239;28;20047;-58
2021/05/20 06:36:50;;;;;;;3.20;2.80;;;;;;;;;;5010699;28;20048;-59
2021/05/20 06:39:16;;;;;;;6.00;3.55;;;;;;;;;;5029299;28;20040;-59
2021/05/20 06:41:42;;;;;;;5.45;3.80;;;;;;;;;;5028909;28;20040;-60
2021/05/20 06:44:07;;;;;;;5.47;3.90;;;;;;;;;;5013234;28;20197;-59
2021/05/20 06:46:34;;;;;;;3.95;2.97;;;;;;;;;;4991616;28;20029;-60
2021/05/20 06:49:02;;;;;;;3.83;3.28;;;;;;;;;;5008062;28;20041;-59
2021/05/20 06:51:27;;;;;;;3.75;2.83;;;;;;;;;;5025955;28;20099;-60
2021/05/20 06:53:53;;;;;;;6.50;2.30;;;;;;;;;;5011304;28;20670;-59
2021/05/20 06:56:23;;;;;;;3.35;2.58;;;;;;;;;;5010502;28;20094;-60
2021/05/20 07:01:33;;;;;;;4.38;2.90;;;;;;;;;;5027209;28;20569;-59
2021/05/20 07:04:01;;;;;;;3.03;2.42;;;;;;;;;;5010990;28;20037;-60
2021/05/20 07:06:27;;;;;;;3.55;2.72;;;;;;;;;;5012607;28;20116;-60
2021/05/20 07:08:53;;;;;;;3.03;2.72;;;;;;;;;;5008268;28;20025;-61
2021/05/20 07:11:19;;;;;;;5.32;3.13;;;;;;;;;;5009990;28;20025;-60
2021/05/20 07:13:45;;;;;;;3.85;2.53;;;;;;;;;;5025242;28;20060;-59
2021/05/20 07:16:14;;;;;;;3.50;2.60;;;;;;;;;;5006555;28;20055;-59
2021/05/20 07:18:42;;;;;;;4.38;2.80;;;;;;;;;;5026399;28;20511;-59
2021/05/20 07:21:08;;;;;;;4.95;3.03;;;;;;;;;;5010126;28;20453;-60
2021/05/20 07:23:34;;;;;;;4.18;2.80;;;;;;;;;;5010445;28;20029;-59
2021/05/20 07:26:01;;;;;;;4.72;2.72;;;;;;;;;;5029008;28;20036;-59
2021/05/20 07:28:26;;;;;;;4.22;2.90;;;;;;;;;;5010478;28;22278;-59
2021/05/20 07:30:54;;;;;;;3.42;2.92;;;;;;;;;;5029197;28;20060;-60
2021/05/20 07:33:21;;;;;;;5.30;2.60;;;;;;;;;;5006486;28;21453;-60
2021/05/20 07:35:46;;;;;;;3.97;2.58;;;;;;;;;;5011587;28;20036;-59
2021/05/20 07:38:12;;;;;;;3.70;2.10;;;;;;;;;;5029661;28;20041;-59
2021/05/20 07:40:38;;;;;;;5.07;2.63;;;;;;;;;;5012311;28;20116;-59
2021/05/20 07:43:04;;;;;;;4.72;2.53;;;;;;;;;;5011620;28;20033;-59
2021/05/20 07:45:30;;;;;;;3.80;2.60;;;;;;;;;;5008818;28;20120;-59
2021/05/20 07:47:58;;;;;;;5.25;2.45;;;;;;;;;;4996845;28;20037;-58
2021/05/20 07:50:24;;;;;;;5.57;2.47;;;;;;;;;;5010113;28;20041;-58
2021/05/20 07:52:52;;;;;;;4.20;2.35;;;;;;;;;;5027786;28;20059;-61
2021/05/20 07:55:18;;;;;;;3.40;2.20;;;;;;;;;;5010478;28;20045;-59
2021/05/20 07:57:47;;;;;;;4.00;2.08;;;;;;;;;;4994398;28;20503;-59
2021/05/20 08:00:15;;;;;;;2.10;1.90;;;;;;;;;;5011883;28;20139;-60
2021/05/20 08:05:22;;;;;;;2.83;1.70;;;;;;;;;;5011816;28;20024;-60
2021/05/20 08:12:41;;;;;;;2.22;2.03;;;;;;;;;;5027771;28;20048;-60
2021/05/20 08:15:07;;;;;;;3.83;2.10;;;;;;;;;;4990082;28;21288;-61
2021/05/20 08:17:33;;;;;;;3.03;1.63;;;;;;;;;;5027561;28;20067;-60
2021/05/20 08:19:58;;;;;;;1.98;1.40;;;;;;;;;;5008811;28;20033;-60
2021/05/20 08:22:25;;;;;;;1.40;1.30;;;;;;;;;;5027241;28;20067;-60
2021/05/20 08:24:50;;;;;;;1.90;1.50;;;;;;;;;;5011157;28;20151;-60
2021/05/20 08:27:16;;;;;;;2.67;1.40;;;;;;;;;;5025702;28;20677;-60
2021/05/20 08:29:45;;;;;;;3.88;1.17;;;;;;;;;;5030059;28;20029;-60
2021/05/20 08:32:10;;;;;;;2.80;1.38;;;;;;;;;;5025094;28;20037;-61
2021/05/20 08:34:36;;;;;;;2.53;1.60;;;;;;;;;;5029732;28;20021;-60
2021/05/20 08:37:02;;;;;;;1.73;1.17;;;;;;;;;;5029300;28;20075;-61
2021/05/20 08:39:27;;;;;;;2.10;1.30;;;;;;;;;;5027445;28;20486;-61
2021/05/20 08:41:56;;;;;;;3.50;1.52;;;;;;;;;;5027581;28;20461;-60
2021/05/20 08:44:26;;;;;;;2.10;1.27;;;;;;;;;;5026482;28;20029;-61
2021/05/20 08:46:56;;;;;;;2.05;0.93;;;;;;;;;;5009833;28;20765;-61
2021/05/20 08:49:22;;;;;;;2.10;1.00;;;;;;;;;;5027622;28;20143;-61
2021/05/20 08:51:48;;;;;;;2.25;1.02;;;;;;;;;;5028361;28;20652;-60
2021/05/20 08:54:18;;;;;;;1.52;1.10;;;;;;;;;;5023523;28;20050;-61
2021/05/20 08:56:55;;;;;;;1.17;1.02;;;;;;;;;;5022464;28;20044;-61
2021/05/20 08:59:21;;;;;;;1.50;0.90;;;;;;;;;;5027518;28;20194;-60
2021/05/20 09:01:48;;;;;;;1.20;1.08;;;;;;;;;;5023972;28;20567;-60
2021/05/20 09:04:14;;;;;;;2.17;1.00;;;;;;;;;;5007346;28;20090;-60
2021/05/20 09:07:11;;;;;;;1.20;0.80;;;;;;;;;;5009803;28;20029;-61
2021/05/20 09:09:38;;;;;;;1.33;1.00;;;;;;;;;;5009106;28;20606;-60
2021/05/20 09:12:04;;;;;;;1.00;0.82;;;;;;;;;;5007535;28;20033;-63
2021/05/20 09:14:34;;;;;;;1.05;0.95;;;;;;;;;;5005864;28;20049;-61
2021/05/20 09:17:10;;;;;;;2.63;0.95;;;;;;;;;;5025999;28;20040;-60
2021/05/20 09:19:36;;;;;;;2.47;1.27;;;;;;;;;;5012813;28;20517;-61
2021/05/20 09:22:11;;;;;;;1.77;0.90;;;;;;;;;;5032100;28;20025;-60
2021/05/20 09:24:50;;;;;;;1.35;1.15;;;;;;;;;;4995570;28;20029;-61
2021/05/20 09:27:25;;;;;;;1.13;1.02;;;;;;;;;;5010755;28;20048;-61
2021/05/20 09:30:09;;;;;;;2.20;0.93;;;;;;;;;;5013641;28;20029;-62
2021/05/20 09:32:36;;;;;;;0.70;0.70;;;;;;;;;;5029665;28;20114;-60
2021/05/20 09:35:03;;;;;;;0.80;0.80;;;;;;;;;;5031586;28;20040;-62
2021/05/20 09:37:33;;;;;;;0.70;0.70;;;;;;;;;;5029641;28;20044;-61
2021/05/20 09:40:20;;;;;;;4.53;1.02;;;;;;;;;;5017285;28;20041;-62
2021/05/20 09:42:48;;;;;;;1.40;0.70;;;;;;;;;;5031896;28;20044;-62
2021/05/20 09:45:15;;;;;;;1.13;0.68;;;;;;;;;;5012125;28;20067;-62
2021/05/20 09:47:41;;;;;;;2.03;0.65;;;;;;;;;;5032417;28;20829;-61
2021/05/20 09:50:14;;;;;;;1.50;1.10;;;;;;;;;;5028327;28;20032;-58
2021/05/20 09:52:41;;;;;;;1.85;1.10;;;;;;;;;;5013975;28;20781;-61
2021/05/20 09:55:20;;;;;;;3.28;0.85;;;;;;;;;;4994626;28;20031;-60
2021/05/20 09:57:46;;;;;;;1.58;0.80;;;;;;;;;;5008629;28;20154;-61
2021/05/20 10:00:16;;;;;;;0.98;0.77;;;;;;;;;;5013360;28;20036;-64
2021/05/20 10:02:45;;;;;;;1.25;0.55;;;;;;;;;;5013162;28;20071;-63
2021/05/20 10:05:20;;;;;;;1.33;0.80;;;;;;;;;;5030787;28;20079;-61
2021/05/20 10:07:46;;;;;;;1.15;0.90;;;;;;;;;;5008581;28;20795;-62
2021/05/20 10:10:12;;;;;;;1.23;0.80;;;;;;;;;;5013362;28;20033;-62
2021/05/20 10:12:39;;;;;;;1.05;0.95;;;;;;;;;;5012151;28;20033;-60
2021/05/20 10:15:08;;;;;;;1.42;0.85;;;;;;;;;;5011816;28;20107;-62
2021/05/20 10:17:39;;;;;;;0.68;0.55;;;;;;;;;;5010614;28;20115;-60
2021/05/20 10:20:05;;;;;;;3.28;0.60;;;;;;;;;;5030238;28;20243;-61
2021/05/20 10:22:34;;;;;;;3.50;1.02;;;;;;;;;;5010980;28;20039;-61
2021/05/20 10:25:00;;;;;;;1.10;0.75;;;;;;;;;;5011379;28;20032;-62
2021/05/20 10:27:26;;;;;;;1.10;0.73;;;;;;;;;;5025668;28;20786;-62
2021/05/20 10:29:54;;;;;;;0.98;0.70;;;;;;;;;;5026744;28;20420;-62
2021/05/20 10:32:23;;;;;;;1.27;0.80;;;;;;;;;;5009665;28;20064;-61
2021/05/20 10:35:03;;;;;;;1.30;0.80;;;;;;;;;;5010902;28;20037;-60
2021/05/20 10:37:37;;;;;;;1.45;0.80;;;;;;;;;;4988975;28;20035;-61
2021/05/20 10:40:34;;;;;;;1.20;0.55;;;;;;;;;;5011458;28;20157;-60
2021/05/20 10:43:12;;;;;;;0.57;0.57;;;;;;;;;;5006291;28;20109;-62
2021/05/20 10:45:40;;;;;;;1.88;0.60;;;;;;;;;;5022945;28;21766;-60
2021/05/20 10:48:10;;;;;;;0.95;0.60;;;;;;;;;;5009134;28;20109;-61
2021/05/20 10:50:53;;;;;;;2.25;0.40;;;;;;;;;;5011587;28;20044;-62
2021/05/20 10:53:41;;;;;;;0.65;0.22;;;;;;;;;;5009943;28;20029;-61
2021/05/20 10:56:32;;;;;;;0.50;0.30;;;;;;;;;;5008205;28;20272;-60
2021/05/20 10:58:58;;;;;;;1.15;0.40;;;;;;;;;;5027424;28;20060;-61
2021/05/20 11:01:27;;;;;;;2.30;0.70;;;;;;;;;;5009886;28;20071;-60
2021/05/20 11:03:59;;;;;;;0.77;0.35;;;;;;;;;;5026612;28;20041;-60
2021/05/20 11:06:37;;;;;;;2.33;0.52;;;;;;;;;;5025009;28;20044;-61
2021/05/20 11:09:12;;;;;;;0.55;0.40;;;;;;;;;;5027659;28;20044;-61
2021/05/20 11:11:37;;;;;;;0.70;0.38;;;;;;;;;;5022954;28;20029;-60
2021/05/20 11:14:04;;;;;;;0.60;0.55;;;;;;;;;;5008546;28;20047;-59
2021/05/20 11:16:33;;;;;;;1.83;0.73;;;;;;;;;;5009210;28;20116;-61
2021/05/20 11:19:28;;;;;;;1.38;0.55;;;;;;;;;;5009318;28;20025;-61
2021/05/20 11:21:53;;;;;;;1.05;0.50;;;;;;;;;;5009222;28;20049;-61
2021/05/20 11:24:19;;;;;;;1.38;0.60;;;;;;;;;;5008001;28;20115;-60
2021/05/20 11:26:50;;;;;;;1.40;0.57;;;;;;;;;;5008180;28;20037;-61
2021/05/20 11:29:16;;;;;;;3.03;0.80;;;;;;;;;;4987677;28;20141;-60
2021/05/20 11:31:42;;;;;;;1.65;0.73;;;;;;;;;;5004696;28;20971;-61
2021/05/20 11:36:45;;;;;;;1.13;1.08;;;;;;;;;;5006369;28;20110;-62
2021/05/20 11:39:12;;;;;;;1.38;0.80;;;;;;;;;;5006705;28;20054;-61
2021/05/20 11:41:42;;;;;;;1.92;0.88;;;;;;;;;;5007036;28;22081;-60
2021/05/20 11:44:11;;;;;;;1.83;0.75;;;;;;;;;;5008073;28;20934;-60
2021/05/20 11:46:38;;;;;;;1.20;0.65;;;;;;;;;;5004990;28;20029;-60
2021/05/20 11:49:18;;;;;;;1.02;0.68;;;;;;;;;;5007583;28;20033;-60
2021/05/20 11:51:52;;;;;;;1.55;0.77;;;;;;;;;;5009543;28;20035;-62
2021/05/20 11:54:20;;;;;;;0.82;0.60;;;;;;;;;;5020941;28;21108;-60
2021/05/20 11:56:48;;;;;;;0.70;0.50;;;;;;;;;;4996774;28;20056;-59
2021/05/20 11:59:14;;;;;;;0.45;0.45;;;;;;;;;;5016161;28;20571;-61
2021/05/20 12:01:41;;;;;;;0.30;0.30;;;;;;;;;;4987830;28;20029;-62
2021/05/20 12:04:07;;;;;;;1.98;0.30;;;;;;;;;;5015549;28;20039;-64
2021/05/20 12:06:38;;;;;;;0.47;0.30;;;;;;;;;;5000044;28;20032;-60
2021/05/20 12:09:14;;;;;;;2.92;0.28;;;;;;;;;;5009567;28;20634;-60
2021/05/20 12:11:40;;;;;;;0.90;0.20;;;;;;;;;;5002671;28;21106;-61
2021/05/20 12:14:37;;;;;;;0.25;0.25;;;;;;;;;;4995634;28;20077;-59
2021/05/20 12:17:11;;;;;;;0.90;0.25;;;;;;;;;;4997045;28;21072;-61
2021/05/20 12:19:40;;;;;;;0.35;0.20;;;;;;;;;;4997850;28;20095;-59
2021/05/20 12:22:11;;;;;;;1.17;0.20;;;;;;;;;;4995801;28;20029;-62
2021/05/20 12:24:40;;;;;;;1.73;0.65;;;;;;;;;;4998327;28;20025;-59
2021/05/20 12:27:10;;;;;;;0.65;0.43;;;;;;;;;;4992167;28;20037;-61
2021/05/20 12:29:37;;;;;;;0.28;0.22;;;;;;;;;;4997180;28;20044;-62
2021/05/20 12:32:03;;;;;;;4.85;0.38;;;;;;;;;;4997039;28;20045;-60
2021/05/20 12:34:34;;;;;;;0.43;0.32;;;;;;;;;;4996928;28;20214;-62
2021/05/20 12:37:08;;;;;;;0.73;0.38;;;;;;;;;;4994147;28;20049;-64
2021/05/20 12:39:33;;;;;;;0.50;0.40;;;;;;;;;;5009956;28;20037;-60
2021/05/20 12:42:00;;;;;;;0.65;0.35;;;;;;;;;;4994324;28;20040;-60
2021/05/20 12:44:25;;;;;;;0.28;0.17;;;;;;;;;;4996393;28;22156;-61
2021/05/20 12:46:51;;;;;;;1.70;0.60;;;;;;;;;;4995131;28;20103;-60
2021/05/20 12:49:20;;;;;;;1.58;0.57;;;;;;;;;;4998787;28;20086;-60
2021/05/20 12:51:57;;;;;;;1.25;0.70;;;;;;;;;;4995540;28;20025;-60
2021/05/20 12:54:29;;;;;;;2.05;0.57;;;;;;;;;;5003605;28;20038;-60
2021/05/20 12:57:02;;;;;;;2.95;0.80;;;;;;;;;;5011018;28;20041;-60
2021/05/20 12:59:36;;;;;;;1.33;0.80;;;;;;;;;;5013728;28;20090;-60
2021/05/20 13:02:05;;;;;;;2.25;1.27;;;;;;;;;;4996389;28;20145;-60
2021/05/20 13:04:37;;;;;;;1.38;1.10;;;;;;;;;;5001798;28;20045;-60
2021/05/20 13:07:07;;;;;;;3.42;1.17;;;;;;;;;;5000042;28;20060;-61
2021/05/20 13:09:34;;;;;;;1.60;1.30;;;;;;;;;;5001694;28;20589;-59
2021/05/20 13:12:02;;;;;;;1.40;1.10;;;;;;;;;;4999566;28;20033;-59
2021/05/20 13:14:33;;;;;;;2.13;1.20;;;;;;;;;;5015531;28;20112;-60
2021/05/20 13:22:32;;;;;;;3.15;1.70;;;;;;;;;;5017817;28;21703;-60
2021/05/20 13:25:06;;;;;;;3.13;1.58;;;;;;;;;;5020597;28;20028;-60
2021/05/20 13:27:32;;;;;;;2.22;1.52;;;;;;;;;;4999197;28;20048;-60
2021/05/20 13:30:18;;;;;;;2.33;1.40;;;;;;;;;;5020934;28;20909;-59
2021/05/20 13:32:55;;;;;;;1.92;1.63;;;;;;;;;;5019419;28;20025;-58
2021/05/20 13:35:21;;;;;;;3.13;2.22;;;;;;;;;;5029817;28;20033;-59
2021/05/20 13:37:50;;;;;;;2.95;1.95;;;;;;;;;;5031073;28;20112;-58
2021/05/20 13:40:23;;;;;;;2.85;2.20;;;;;;;;;;5010180;28;20048;-58
2021/05/20 13:42:49;;;;;;;2.30;2.10;;;;;;;;;;4998341;28;20120;-59
2021/05/20 13:45:23;;;;;;;;;;;;;;;;;;5029870;28;20224;-58
2021/05/20 13:47:52;;;;;;;2.67;1.90;;;;;;;;;;5030644;28;19920;-61
2021/05/20 13:50:18;;;;;;;2.70;1.80;;;;;;;;;;5009308;28;20450;-59
2021/05/20 13:52:46;;;;;;;2.67;1.63;;;;;;;;;;4994999;28;20016;-59
2021/05/20 13:55:17;;;;;;;2.35;1.90;;;;;;;;;;5013554;28;20025;-59
2021/05/20 13:57:44;;;;;;;4.22;1.88;;;;;;;;;;5010437;28;20025;-59
2021/05/20 14:00:28;;;;;;;1.50;1.40;;;;;;;;;;5011659;28;20565;-59
2021/05/20 14:02:55;;;;;;;4.53;2.17;;;;;;;;;;5009890;28;20692;-60
2021/05/20 14:05:23;;;;;;;7.10;3.40;;;;;;;;;;5030486;28;20071;-57
2021/05/20 14:07:49;;;;;;;2.30;1.88;;;;;;;;;;5011759;28;20025;-60
2021/05/20 14:10:14;;;;;;;3.75;1.70;;;;;;;;;;5028587;28;20365;-60
2021/05/20 14:12:45;;;;;;;3.13;2.10;;;;;;;;;;5026351;28;20024;-58
2021/05/20 14:15:11;;;;;;;2.67;2.00;;;;;;;;;;5025033;28;20747;-59
2021/05/20 14:17:37;;;;;;;6.88;2.70;;;;;;;;;;4993116;28;20045;-60
2021/05/20 14:20:06;;;;;;;6.00;3.33;;;;;;;;;;4993986;28;20127;-58
2021/05/20 14:22:32;;;;;;;6.80;3.33;;;;;;;;;;5010350;28;20039;-59
2021/05/20 14:25:00;;;;;;;6.35;3.72;;;;;;;;;;5011167;28;20037;-58
2021/05/20 14:27:25;;;;;;;8.82;3.42;;;;;;;;;;5028045;28;20037;-59
2021/05/20 14:29:52;;;;;;;5.78;3.00;;;;;;;;;;5009111;28;20434;-60
2021/05/20 14:32:19;;;;;;;4.38;3.42;;;;;;;;;;5010830;28;20055;-57
2021/05/20 14:34:46;;;;;;;4.00;2.65;;;;;;;;;;5025867;28;20017;-59
2021/05/20 14:37:13;;;;;;;6.40;3.78;;;;;;;;;;5009382;28;20021;-59
2021/05/20 14:39:39;;;;;;;9.20;3.60;;;;;;;;;;4991139;28;20487;-60
2021/05/20 14:42:06;;;;;;;4.90;3.20;;;;;;;;;;5028984;28;20515;-59
2021/05/20 14:44:32;;;;;;;7.30;3.03;;;;;;;;;;5030290;28;20121;-59
2021/05/20 14:46:57;;;;;;;15.38;6.85;;;;;;;;;;5011421;28;20032;-59
2021/05/20 14:49:37;;;;;;;4.50;3.22;;;;;;;;;;5024807;28;20041;-59
2021/05/20 14:52:06;;;;;;;5.95;3.50;;;;;;;;;;5011648;28;20917;-59
2021/05/20 14:54:38;;;;;;;6.88;3.78;;;;;;;;;;5030131;28;20021;-59
2021/05/20 14:58:51;;;;;;;14.18;4.97;;;;;;;;;;5029247;28;20253;-62
2021/05/20 15:06:25;;;;;;;16.83;6.03;;;;;;;;;;5029578;28;20041;-59